Terminal Aerodrome Forecast
Issued by NWS

Home | Current Version | Previous Version | Text Only | Print | Product List | Glossary On
Versions: 1 2 3 4 5 6 7 8 9 10 11 12
000
FTUS42 TJSJ 152300 RRA
TAFJMZ
TAF
TJMZ 152342Z 1600/1624 VRB05KT P6SM FEW030 SCT120
     FM161400 07014KT P6SM FEW030 SCT070
     FM161700 25010G15KT P6SM VCTS SCT025CB BKN040
     FM162200 VRB03KT P6SM SCT040
      AMD NOT SKED TIL 161200=

USA.gov is the U.S. government's official web portal to all federal, state and local government web resources and services.